Terminal Aerodrome Forecast
Issued by NWS Newport/Morehead City, NC

Home | Current Version | Previous Version | Graphics & Text | Print | Product List | Glossary On
Versions: 1 2 3 4 5 6 7 8 9 10 11 12 13 14 15 16
000
FTUS42 KMHX 151747
TAFEWN
TAF
KEWN 151747Z 1518/1618 03006KT P6SM SCT015 SCT250
     FM160300 00000KT P6SM SCT015
     FM161200 28005KT P6SM FEW020 FEW250=

USA.gov is the U.S. government's official web portal to all federal, state and local government web resources and services.